sensor_id;sensor_type;location;lat;lon;timestamp;temperature;humidity
16635;DHT22;8431;52.458;9.998;2024-02-26T00:02:08;0.20;99.90
16635;DHT22;8431;52.458;9.998;2024-02-26T00:04:35;0.40;99.90
16635;DHT22;8431;52.458;9.998;2024-02-26T00:07:11;0.60;99.90
16635;DHT22;8431;52.458;9.998;2024-02-26T00:09:38;0.70;99.90
16635;DHT22;8431;52.458;9.998;2024-02-26T00:12:05;0.70;99.90
16635;DHT22;8431;52.458;9.998;2024-02-26T00:14:32;0.60;99.90
16635;DHT22;8431;52.458;9.998;2024-02-26T00:16:59;0.50;99.90
16635;DHT22;8431;52.458;9.998;2024-02-26T00:19:26;0.30;99.90
16635;DHT22;8431;52.458;9.998;2024-02-26T00:21:53;0.50;99.90
16635;DHT22;8431;52.458;9.998;2024-02-26T00:24:25;0.80;99.90
16635;DHT22;8431;52.458;9.998;2024-02-26T00:26:52;0.80;99.90
16635;DHT22;8431;52.458;9.998;2024-02-26T00:29:20;0.80;99.90
16635;DHT22;8431;52.458;9.998;2024-02-26T00:31:57;0.60;99.90
16635;DHT22;8431;52.458;9.998;2024-02-26T00:34:24;0.70;99.90
16635;DHT22;8431;52.458;9.998;2024-02-26T00:36:51;0.60;99.90
16635;DHT22;8431;52.458;9.998;2024-02-26T00:39:18;0.80;99.90
16635;DHT22;8431;52.458;9.998;2024-02-26T00:41:46;1.00;99.90
16635;DHT22;8431;52.458;9.998;2024-02-26T00:44:12;1.10;99.90
16635;DHT22;8431;52.458;9.998;2024-02-26T00:46:39;1.20;99.90
16635;DHT22;8431;52.458;9.998;2024-02-26T00:49:06;1.20;99.90
16635;DHT22;8431;52.458;9.998;2024-02-26T00:51:33;1.30;99.90
16635;DHT22;8431;52.458;9.998;2024-02-26T00:54:00;1.30;99.90
16635;DHT22;8431;52.458;9.998;2024-02-26T00:56:26;1.30;99.90
16635;DHT22;8431;52.458;9.998;2024-02-26T00:58:54;1.20;99.90
16635;DHT22;8431;52.458;9.998;2024-02-26T01:01:21;1.10;99.90
16635;DHT22;8431;52.458;9.998;2024-02-26T01:03:48;0.90;99.90
16635;DHT22;8431;52.458;9.998;2024-02-26T01:06:15;0.70;99.90
16635;DHT22;8431;52.458;9.998;2024-02-26T01:08:42;0.60;99.90
16635;DHT22;8431;52.458;9.998;2024-02-26T01:11:09;0.50;99.90
16635;DHT22;8431;52.458;9.998;2024-02-26T01:13:36;0.40;99.90
16635;DHT22;8431;52.458;9.998;2024-02-26T01:16:04;0.30;99.90
16635;DHT22;8431;52.458;9.998;2024-02-26T01:18:31;0.30;99.90
16635;DHT22;8431;52.458;9.998;2024-02-26T01:20:58;0.40;99.90
16635;DHT22;8431;52.458;9.998;2024-02-26T01:23:25;0.60;99.90
16635;DHT22;8431;52.458;9.998;2024-02-26T01:25:51;0.60;99.90
16635;DHT22;8431;52.458;9.998;2024-02-26T01:28:18;0.60;99.90
16635;DHT22;8431;52.458;9.998;2024-02-26T01:30:45;0.80;99.90
16635;DHT22;8431;52.458;9.998;2024-02-26T01:33:13;1.10;99.90
16635;DHT22;8431;52.458;9.998;2024-02-26T01:35:40;1.10;99.90
16635;DHT22;8431;52.458;9.998;2024-02-26T01:38:07;1.10;99.90
16635;DHT22;8431;52.458;9.998;2024-02-26T01:40:34;1.00;99.90
16635;DHT22;8431;52.458;9.998;2024-02-26T01:43:02;0.90;99.90
16635;DHT22;8431;52.458;9.998;2024-02-26T01:45:28;0.90;99.90
16635;DHT22;8431;52.458;9.998;2024-02-26T01:47:55;0.80;99.90
16635;DHT22;8431;52.458;9.998;2024-02-26T01:50:24;0.80;99.90
16635;DHT22;8431;52.458;9.998;2024-02-26T01:52:52;0.80;99.90
16635;DHT22;8431;52.458;9.998;2024-02-26T01:55:20;0.80;99.90
16635;DHT22;8431;52.458;9.998;2024-02-26T01:57:49;0.90;99.90
16635;DHT22;8431;52.458;9.998;2024-02-26T02:00:18;0.90;99.90
16635;DHT22;8431;52.458;9.998;2024-02-26T02:02:45;1.00;99.90
16635;DHT22;8431;52.458;9.998;2024-02-26T02:05:15;1.10;99.90
16635;DHT22;8431;52.458;9.998;2024-02-26T02:07:43;1.10;99.90
16635;DHT22;8431;52.458;9.998;2024-02-26T02:10:10;1.10;99.90
16635;DHT22;8431;52.458;9.998;2024-02-26T02:12:37;1.10;99.90
16635;DHT22;8431;52.458;9.998;2024-02-26T02:15:06;0.90;99.90
16635;DHT22;8431;52.458;9.998;2024-02-26T02:17:33;0.80;99.90
16635;DHT22;8431;52.458;9.998;2024-02-26T02:20:00;0.80;99.90
16635;DHT22;8431;52.458;9.998;2024-02-26T02:22:29;0.80;99.90
16635;DHT22;8431;52.458;9.998;2024-02-26T02:24:57;0.90;99.90
16635;DHT22;8431;52.458;9.998;2024-02-26T02:27:24;1.00;99.90
16635;DHT22;8431;52.458;9.998;2024-02-26T02:29:52;1.10;99.90
16635;DHT22;8431;52.458;9.998;2024-02-26T02:32:19;1.20;99.90
16635;DHT22;8431;52.458;9.998;2024-02-26T02:34:46;1.10;99.90
16635;DHT22;8431;52.458;9.998;2024-02-26T02:37:13;1.10;99.90
16635;DHT22;8431;52.458;9.998;2024-02-26T02:39:41;0.90;99.90
16635;DHT22;8431;52.458;9.998;2024-02-26T02:42:08;0.90;99.90
16635;DHT22;8431;52.458;9.998;2024-02-26T02:44:36;0.80;99.90
16635;DHT22;8431;52.458;9.998;2024-02-26T02:47:03;0.80;99.90
16635;DHT22;8431;52.458;9.998;2024-02-26T02:49:30;0.90;99.90
16635;DHT22;8431;52.458;9.998;2024-02-26T02:51:57;0.80;99.90
16635;DHT22;8431;52.458;9.998;2024-02-26T02:54:23;1.00;99.90
16635;DHT22;8431;52.458;9.998;2024-02-26T02:56:52;0.90;99.90
16635;DHT22;8431;52.458;9.998;2024-02-26T02:59:18;0.90;99.90
16635;DHT22;8431;52.458;9.998;2024-02-26T03:01:45;1.00;99.90
16635;DHT22;8431;52.458;9.998;2024-02-26T03:04:12;1.00;99.90
16635;DHT22;8431;52.458;9.998;2024-02-26T03:06:39;0.90;99.90
16635;DHT22;8431;52.458;9.998;2024-02-26T03:09:06;1.00;99.90
16635;DHT22;8431;52.458;9.998;2024-02-26T03:11:33;1.00;99.90
16635;DHT22;8431;52.458;9.998;2024-02-26T03:14:01;0.90;99.90
16635;DHT22;8431;52.458;9.998;2024-02-26T03:16:28;1.00;99.90
16635;DHT22;8431;52.458;9.998;2024-02-26T03:18:55;1.00;99.90
16635;DHT22;8431;52.458;9.998;2024-02-26T03:21:22;1.00;99.90
16635;DHT22;8431;52.458;9.998;2024-02-26T03:23:48;1.00;99.90
16635;DHT22;8431;52.458;9.998;2024-02-26T03:26:15;1.00;99.90
16635;DHT22;8431;52.458;9.998;2024-02-26T03:28:42;1.00;99.90
16635;DHT22;8431;52.458;9.998;2024-02-26T03:31:10;0.90;99.90
16635;DHT22;8431;52.458;9.998;2024-02-26T03:33:37;0.80;99.90
16635;DHT22;8431;52.458;9.998;2024-02-26T03:36:05;0.90;99.90
16635;DHT22;8431;52.458;9.998;2024-02-26T03:38:33;0.80;99.90
16635;DHT22;8431;52.458;9.998;2024-02-26T03:40:59;0.80;99.90
16635;DHT22;8431;52.458;9.998;2024-02-26T03:43:26;0.80;99.90
16635;DHT22;8431;52.458;9.998;2024-02-26T03:45:53;0.70;99.90
16635;DHT22;8431;52.458;9.998;2024-02-26T03:48:21;0.80;99.90
16635;DHT22;8431;52.458;9.998;2024-02-26T03:50:48;0.70;99.90
16635;DHT22;8431;52.458;9.998;2024-02-26T03:53:15;0.80;99.90
16635;DHT22;8431;52.458;9.998;2024-02-26T03:55:41;0.80;99.90
16635;DHT22;8431;52.458;9.998;2024-02-26T03:58:08;0.80;99.90
16635;DHT22;8431;52.458;9.998;2024-02-26T04:00:35;0.80;99.90
16635;DHT22;8431;52.458;9.998;2024-02-26T04:03:02;0.80;99.90
16635;DHT22;8431;52.458;9.998;2024-02-26T04:05:30;0.80;99.90
16635;DHT22;8431;52.458;9.998;2024-02-26T04:07:57;0.80;99.90
16635;DHT22;8431;52.458;9.998;2024-02-26T04:10:24;0.80;99.90
16635;DHT22;8431;52.458;9.998;2024-02-26T04:12:51;0.90;99.90
16635;DHT22;8431;52.458;9.998;2024-02-26T04:15:17;0.90;99.90
16635;DHT22;8431;52.458;9.998;2024-02-26T04:17:44;0.90;99.90
16635;DHT22;8431;52.458;9.998;2024-02-26T04:20:14;0.90;99.90
16635;DHT22;8431;52.458;9.998;2024-02-26T04:22:42;1.00;99.90
16635;DHT22;8431;52.458;9.998;2024-02-26T04:25:09;1.00;99.90
16635;DHT22;8431;52.458;9.998;2024-02-26T04:27:36;1.00;99.90
16635;DHT22;8431;52.458;9.998;2024-02-26T04:30:04;1.00;99.90
16635;DHT22;8431;52.458;9.998;2024-02-26T04:32:31;0.90;99.90
16635;DHT22;8431;52.458;9.998;2024-02-26T04:34:58;1.00;99.90
16635;DHT22;8431;52.458;9.998;2024-02-26T04:37:25;1.00;99.90
16635;DHT22;8431;52.458;9.998;2024-02-26T04:39:58;1.00;99.90
16635;DHT22;8431;52.458;9.998;2024-02-26T04:42:24;1.00;99.90
16635;DHT22;8431;52.458;9.998;2024-02-26T04:44:51;1.00;99.90
16635;DHT22;8431;52.458;9.998;2024-02-26T04:47:18;1.00;99.90
16635;DHT22;8431;52.458;9.998;2024-02-26T04:49:45;1.00;99.90
16635;DHT22;8431;52.458;9.998;2024-02-26T04:52:12;1.10;99.90
16635;DHT22;8431;52.458;9.998;2024-02-26T04:54:38;1.10;99.90
16635;DHT22;8431;52.458;9.998;2024-02-26T04:57:07;1.10;99.90
16635;DHT22;8431;52.458;9.998;2024-02-26T04:59:33;1.20;99.90
16635;DHT22;8431;52.458;9.998;2024-02-26T05:02:00;1.20;99.90
16635;DHT22;8431;52.458;9.998;2024-02-26T05:04:27;1.20;99.90
16635;DHT22;8431;52.458;9.998;2024-02-26T05:06:54;1.10;99.90
16635;DHT22;8431;52.458;9.998;2024-02-26T05:09:20;1.10;99.90
16635;DHT22;8431;52.458;9.998;2024-02-26T05:11:47;1.10;99.90
16635;DHT22;8431;52.458;9.998;2024-02-26T05:14:15;1.20;99.90
16635;DHT22;8431;52.458;9.998;2024-02-26T05:16:42;1.20;99.90
16635;DHT22;8431;52.458;9.998;2024-02-26T05:19:09;1.20;99.90
16635;DHT22;8431;52.458;9.998;2024-02-26T05:21:36;1.20;99.90
16635;DHT22;8431;52.458;9.998;2024-02-26T05:24:03;1.20;99.90
16635;DHT22;8431;52.458;9.998;2024-02-26T05:26:29;1.20;99.90
16635;DHT22;8431;52.458;9.998;2024-02-26T05:28:56;1.20;99.90
16635;DHT22;8431;52.458;9.998;2024-02-26T05:31:26;1.30;99.90
16635;DHT22;8431;52.458;9.998;2024-02-26T05:33:54;1.30;99.90
16635;DHT22;8431;52.458;9.998;2024-02-26T05:36:21;1.30;99.90
16635;DHT22;8431;52.458;9.998;2024-02-26T05:38:51;1.20;99.90
16635;DHT22;8431;52.458;9.998;2024-02-26T05:41:19;1.10;99.90
16635;DHT22;8431;52.458;9.998;2024-02-26T05:43:48;1.10;99.90
16635;DHT22;8431;52.458;9.998;2024-02-26T05:46:16;1.10;99.90
16635;DHT22;8431;52.458;9.998;2024-02-26T05:48:45;1.10;99.90
16635;DHT22;8431;52.458;9.998;2024-02-26T05:51:12;1.20;99.90
16635;DHT22;8431;52.458;9.998;2024-02-26T05:53:40;1.30;99.90
16635;DHT22;8431;52.458;9.998;2024-02-26T05:56:07;1.30;99.90
16635;DHT22;8431;52.458;9.998;2024-02-26T05:58:34;1.40;99.90
16635;DHT22;8431;52.458;9.998;2024-02-26T06:01:01;1.50;99.90
16635;DHT22;8431;52.458;9.998;2024-02-26T06:03:28;1.50;99.90
16635;DHT22;8431;52.458;9.998;2024-02-26T06:05:57;1.60;99.90
16635;DHT22;8431;52.458;9.998;2024-02-26T06:08:24;1.60;99.90
16635;DHT22;8431;52.458;9.998;2024-02-26T06:10:50;1.60;99.90
16635;DHT22;8431;52.458;9.998;2024-02-26T06:13:17;1.70;99.90
16635;DHT22;8431;52.458;9.998;2024-02-26T06:15:44;1.70;99.90
16635;DHT22;8431;52.458;9.998;2024-02-26T06:18:11;1.70;99.90
16635;DHT22;8431;52.458;9.998;2024-02-26T06:20:38;1.70;99.90
16635;DHT22;8431;52.458;9.998;2024-02-26T06:23:07;1.60;99.90
16635;DHT22;8431;52.458;9.998;2024-02-26T06:25:34;1.60;99.90
16635;DHT22;8431;52.458;9.998;2024-02-26T06:28:00;1.60;99.90
16635;DHT22;8431;52.458;9.998;2024-02-26T06:30:27;1.60;99.90
16635;DHT22;8431;52.458;9.998;2024-02-26T06:32:54;1.60;99.90
16635;DHT22;8431;52.458;9.998;2024-02-26T06:35:21;1.60;99.90
16635;DHT22;8431;52.458;9.998;2024-02-26T06:37:47;1.70;99.90
16635;DHT22;8431;52.458;9.998;2024-02-26T06:40:17;1.70;99.90
16635;DHT22;8431;52.458;9.998;2024-02-26T06:42:44;1.70;99.90
16635;DHT22;8431;52.458;9.998;2024-02-26T06:45:11;1.80;99.90
16635;DHT22;8431;52.458;9.998;2024-02-26T06:47:38;1.80;99.90
16635;DHT22;8431;52.458;9.998;2024-02-26T06:50:05;1.80;99.90
16635;DHT22;8431;52.458;9.998;2024-02-26T06:52:31;1.80;99.90
16635;DHT22;8431;52.458;9.998;2024-02-26T06:54:58;1.80;99.90
16635;DHT22;8431;52.458;9.998;2024-02-26T06:57:26;1.90;99.90
16635;DHT22;8431;52.458;9.998;2024-02-26T06:59:53;1.90;99.90
16635;DHT22;8431;52.458;9.998;2024-02-26T07:02:20;1.90;99.90
16635;DHT22;8431;52.458;9.998;2024-02-26T07:04:47;1.90;99.90
16635;DHT22;8431;52.458;9.998;2024-02-26T07:07:13;2.00;99.90
16635;DHT22;8431;52.458;9.998;2024-02-26T07:09:42;2.00;99.90
16635;DHT22;8431;52.458;9.998;2024-02-26T07:12:09;2.00;99.90
16635;DHT22;8431;52.458;9.998;2024-02-26T07:14:37;1.90;99.90
16635;DHT22;8431;52.458;9.998;2024-02-26T07:17:04;2.00;99.90
16635;DHT22;8431;52.458;9.998;2024-02-26T07:19:30;2.00;99.90
16635;DHT22;8431;52.458;9.998;2024-02-26T07:21:57;2.00;99.90
16635;DHT22;8431;52.458;9.998;2024-02-26T07:24:26;2.10;99.90
16635;DHT22;8431;52.458;9.998;2024-02-26T07:26:53;2.10;99.90
16635;DHT22;8431;52.458;9.998;2024-02-26T07:29:20;2.10;99.90
16635;DHT22;8431;52.458;9.998;2024-02-26T07:31:48;2.20;99.90
16635;DHT22;8431;52.458;9.998;2024-02-26T07:34:15;2.30;99.90
16635;DHT22;8431;52.458;9.998;2024-02-26T07:36:42;2.30;99.90
16635;DHT22;8431;52.458;9.998;2024-02-26T07:39:10;2.50;99.90
16635;DHT22;8431;52.458;9.998;2024-02-26T07:41:36;2.60;99.90
16635;DHT22;8431;52.458;9.998;2024-02-26T07:44:04;2.70;99.90
16635;DHT22;8431;52.458;9.998;2024-02-26T07:46:31;2.70;99.90
16635;DHT22;8431;52.458;9.998;2024-02-26T07:48:59;2.70;99.90
16635;DHT22;8431;52.458;9.998;2024-02-26T07:51:26;2.70;99.90
16635;DHT22;8431;52.458;9.998;2024-02-26T07:53:53;2.70;99.90
16635;DHT22;8431;52.458;9.998;2024-02-26T07:56:19;2.80;99.90
16635;DHT22;8431;52.458;9.998;2024-02-26T07:58:46;2.80;99.90
16635;DHT22;8431;52.458;9.998;2024-02-26T08:01:13;2.80;99.90
16635;DHT22;8431;52.458;9.998;2024-02-26T08:03:40;2.90;99.90
16635;DHT22;8431;52.458;9.998;2024-02-26T08:06:09;2.90;99.90
16635;DHT22;8431;52.458;9.998;2024-02-26T08:08:36;2.90;99.90
16635;DHT22;8431;52.458;9.998;2024-02-26T08:11:03;3.00;99.90
16635;DHT22;8431;52.458;9.998;2024-02-26T08:13:30;3.00;99.90
16635;DHT22;8431;52.458;9.998;2024-02-26T08:15:56;3.00;99.90
16635;DHT22;8431;52.458;9.998;2024-02-26T08:18:24;3.10;99.90
16635;DHT22;8431;52.458;9.998;2024-02-26T08:20:51;3.10;99.90
16635;DHT22;8431;52.458;9.998;2024-02-26T08:23:19;3.20;99.90
16635;DHT22;8431;52.458;9.998;2024-02-26T08:25:45;3.40;99.90
16635;DHT22;8431;52.458;9.998;2024-02-26T08:28:13;3.60;99.90
16635;DHT22;8431;52.458;9.998;2024-02-26T08:30:40;3.70;99.90
16635;DHT22;8431;52.458;9.998;2024-02-26T08:33:07;3.80;99.90
16635;DHT22;8431;52.458;9.998;2024-02-26T08:35:33;3.90;99.90
16635;DHT22;8431;52.458;9.998;2024-02-26T08:38:00;4.10;99.90
16635;DHT22;8431;52.458;9.998;2024-02-26T08:40:29;4.20;99.90
16635;DHT22;8431;52.458;9.998;2024-02-26T08:42:56;4.20;99.90
16635;DHT22;8431;52.458;9.998;2024-02-26T08:45:23;4.20;99.90
16635;DHT22;8431;52.458;9.998;2024-02-26T08:47:51;4.30;99.90
16635;DHT22;8431;52.458;9.998;2024-02-26T08:50:17;4.30;99.90
16635;DHT22;8431;52.458;9.998;2024-02-26T08:52:44;4.40;99.90
16635;DHT22;8431;52.458;9.998;2024-02-26T08:55:14;4.40;99.90
16635;DHT22;8431;52.458;9.998;2024-02-26T08:57:42;4.30;99.90
16635;DHT22;8431;52.458;9.998;2024-02-26T09:00:09;4.30;99.90
16635;DHT22;8431;52.458;9.998;2024-02-26T09:02:37;4.30;99.90
16635;DHT22;8431;52.458;9.998;2024-02-26T09:05:05;4.60;99.90
16635;DHT22;8431;52.458;9.998;2024-02-26T09:07:32;4.60;99.90
16635;DHT22;8431;52.458;9.998;2024-02-26T09:09:59;4.60;99.90
16635;DHT22;8431;52.458;9.998;2024-02-26T09:12:26;4.60;99.90
16635;DHT22;8431;52.458;9.998;2024-02-26T09:14:54;4.50;99.90
16635;DHT22;8431;52.458;9.998;2024-02-26T09:17:21;4.60;99.90
16635;DHT22;8431;52.458;9.998;2024-02-26T09:19:48;4.60;99.90
16635;DHT22;8431;52.458;9.998;2024-02-26T09:22:15;4.60;99.90
16635;DHT22;8431;52.458;9.998;2024-02-26T09:24:42;4.60;99.90
16635;DHT22;8431;52.458;9.998;2024-02-26T09:27:08;4.60;99.90
16635;DHT22;8431;52.458;9.998;2024-02-26T09:29:35;4.60;99.90
16635;DHT22;8431;52.458;9.998;2024-02-26T09:32:04;4.80;99.90
16635;DHT22;8431;52.458;9.998;2024-02-26T09:34:31;4.70;99.90
16635;DHT22;8431;52.458;9.998;2024-02-26T09:36:59;4.60;99.90
16635;DHT22;8431;52.458;9.998;2024-02-26T09:39:26;4.70;99.90
16635;DHT22;8431;52.458;9.998;2024-02-26T09:41:53;4.70;99.90
16635;DHT22;8431;52.458;9.998;2024-02-26T09:44:20;4.70;99.90
16635;DHT22;8431;52.458;9.998;2024-02-26T09:46:47;4.80;99.90
16635;DHT22;8431;52.458;9.998;2024-02-26T09:49:17;4.80;99.90
16635;DHT22;8431;52.458;9.998;2024-02-26T09:51:45;4.80;99.90
16635;DHT22;8431;52.458;9.998;2024-02-26T09:54:14;4.90;99.90
16635;DHT22;8431;52.458;9.998;2024-02-26T09:56:42;5.10;99.90
16635;DHT22;8431;52.458;9.998;2024-02-26T09:59:11;5.00;99.90
16635;DHT22;8431;52.458;9.998;2024-02-26T10:01:42;4.90;99.90
16635;DHT22;8431;52.458;9.998;2024-02-26T10:04:09;5.00;99.90
16635;DHT22;8431;52.458;9.998;2024-02-26T10:06:37;5.10;99.90
16635;DHT22;8431;52.458;9.998;2024-02-26T10:09:05;5.20;99.90
16635;DHT22;8431;52.458;9.998;2024-02-26T10:11:35;5.30;99.90
16635;DHT22;8431;52.458;9.998;2024-02-26T10:14:04;5.40;99.90
16635;DHT22;8431;52.458;9.998;2024-02-26T10:16:32;5.40;99.90
16635;DHT22;8431;52.458;9.998;2024-02-26T10:19:00;5.50;99.90
16635;DHT22;8431;52.458;9.998;2024-02-26T10:21:27;5.50;99.90
16635;DHT22;8431;52.458;9.998;2024-02-26T10:23:55;5.50;99.90
16635;DHT22;8431;52.458;9.998;2024-02-26T10:26:22;5.40;99.90
16635;DHT22;8431;52.458;9.998;2024-02-26T10:28:49;5.40;99.90
16635;DHT22;8431;52.458;9.998;2024-02-26T10:31:16;5.40;99.90
16635;DHT22;8431;52.458;9.998;2024-02-26T10:33:43;5.50;99.90
16635;DHT22;8431;52.458;9.998;2024-02-26T10:36:10;5.60;99.90
16635;DHT22;8431;52.458;9.998;2024-02-26T10:38:37;5.70;99.90
16635;DHT22;8431;52.458;9.998;2024-02-26T10:41:06;5.80;99.90
16635;DHT22;8431;52.458;9.998;2024-02-26T10:43:33;5.90;99.90
16635;DHT22;8431;52.458;9.998;2024-02-26T10:46:00;5.90;99.90
16635;DHT22;8431;52.458;9.998;2024-02-26T10:48:27;6.10;99.90
16635;DHT22;8431;52.458;9.998;2024-02-26T10:50:54;6.20;99.90
16635;DHT22;8431;52.458;9.998;2024-02-26T10:53:23;6.20;99.90
16635;DHT22;8431;52.458;9.998;2024-02-26T10:55:55;6.30;99.90
16635;DHT22;8431;52.458;9.998;2024-02-26T10:58:25;6.50;99.90
16635;DHT22;8431;52.458;9.998;2024-02-26T11:00:52;6.50;99.90
16635;DHT22;8431;52.458;9.998;2024-02-26T11:03:20;6.60;99.90
16635;DHT22;8431;52.458;9.998;2024-02-26T11:05:48;6.60;99.90
16635;DHT22;8431;52.458;9.998;2024-02-26T11:08:16;6.70;99.90
16635;DHT22;8431;52.458;9.998;2024-02-26T11:10:46;6.70;99.90
16635;DHT22;8431;52.458;9.998;2024-02-26T11:13:16;6.60;99.90
16635;DHT22;8431;52.458;9.998;2024-02-26T11:15:46;6.50;99.90
16635;DHT22;8431;52.458;9.998;2024-02-26T11:18:14;6.60;99.90
16635;DHT22;8431;52.458;9.998;2024-02-26T11:20:42;6.70;99.90
16635;DHT22;8431;52.458;9.998;2024-02-26T11:23:09;6.80;99.90
16635;DHT22;8431;52.458;9.998;2024-02-26T11:25:36;6.70;99.90
16635;DHT22;8431;52.458;9.998;2024-02-26T11:28:07;6.70;99.90
16635;DHT22;8431;52.458;9.998;2024-02-26T11:30:38;6.80;99.90
16635;DHT22;8431;52.458;9.998;2024-02-26T11:33:08;6.90;99.90
16635;DHT22;8431;52.458;9.998;2024-02-26T11:35:36;6.90;99.80
16635;DHT22;8431;52.458;9.998;2024-02-26T11:38:03;6.90;99.90
16635;DHT22;8431;52.458;9.998;2024-02-26T11:40:32;7.00;99.80
16635;DHT22;8431;52.458;9.998;2024-02-26T11:42:59;7.00;99.90
16635;DHT22;8431;52.458;9.998;2024-02-26T11:45:51;7.10;99.90
16635;DHT22;8431;52.458;9.998;2024-02-26T11:48:28;7.10;99.90
16635;DHT22;8431;52.458;9.998;2024-02-26T11:50:55;7.10;99.90
16635;DHT22;8431;52.458;9.998;2024-02-26T11:53:25;7.10;99.90
16635;DHT22;8431;52.458;9.998;2024-02-26T11:56:21;7.10;99.00
16635;DHT22;8431;52.458;9.998;2024-02-26T11:58:53;7.10;99.90
16635;DHT22;8431;52.458;9.998;2024-02-26T12:01:39;7.10;99.70
16635;DHT22;8431;52.458;9.998;2024-02-26T12:04:11;7.10;99.00
16635;DHT22;8431;52.458;9.998;2024-02-26T12:06:43;7.10;99.40
16635;DHT22;8431;52.458;9.998;2024-02-26T12:09:10;7.20;98.70
16635;DHT22;8431;52.458;9.998;2024-02-26T12:11:40;7.30;99.40
16635;DHT22;8431;52.458;9.998;2024-02-26T12:14:08;7.20;99.20
16635;DHT22;8431;52.458;9.998;2024-02-26T12:16:35;7.30;99.30
16635;DHT22;8431;52.458;9.998;2024-02-26T12:19:04;7.30;99.60
16635;DHT22;8431;52.458;9.998;2024-02-26T12:21:34;7.50;99.40
16635;DHT22;8431;52.458;9.998;2024-02-26T12:24:10;7.60;98.20
16635;DHT22;8431;52.458;9.998;2024-02-26T12:26:37;7.60;99.10
16635;DHT22;8431;52.458;9.998;2024-02-26T12:29:04;7.60;98.80
16635;DHT22;8431;52.458;9.998;2024-02-26T12:31:31;7.80;99.30
16635;DHT22;8431;52.458;9.998;2024-02-26T12:33:59;7.80;97.60
16635;DHT22;8431;52.458;9.998;2024-02-26T12:36:26;7.70;98.20
16635;DHT22;8431;52.458;9.998;2024-02-26T12:38:55;7.60;98.20
16635;DHT22;8431;52.458;9.998;2024-02-26T12:41:22;7.70;98.30
16635;DHT22;8431;52.458;9.998;2024-02-26T12:43:49;7.70;98.30
16635;DHT22;8431;52.458;9.998;2024-02-26T12:46:16;7.80;97.40
16635;DHT22;8431;52.458;9.998;2024-02-26T12:48:43;8.00;97.90
16635;DHT22;8431;52.458;9.998;2024-02-26T12:51:12;8.00;97.10
16635;DHT22;8431;52.458;9.998;2024-02-26T12:53:39;7.80;96.80
16635;DHT22;8431;52.458;9.998;2024-02-26T12:56:08;8.00;98.90
16635;DHT22;8431;52.458;9.998;2024-02-26T12:58:35;8.10;98.00
16635;DHT22;8431;52.458;9.998;2024-02-26T13:01:06;8.10;97.00
16635;DHT22;8431;52.458;9.998;2024-02-26T13:03:38;8.20;97.90
16635;DHT22;8431;52.458;9.998;2024-02-26T13:06:06;8.20;97.00
16635;DHT22;8431;52.458;9.998;2024-02-26T13:08:33;8.30;97.40
16635;DHT22;8431;52.458;9.998;2024-02-26T13:11:00;8.30;97.50
16635;DHT22;8431;52.458;9.998;2024-02-26T13:13:28;8.40;97.20
16635;DHT22;8431;52.458;9.998;2024-02-26T13:16:02;8.40;96.90
16635;DHT22;8431;52.458;9.998;2024-02-26T13:18:30;8.40;97.50
16635;DHT22;8431;52.458;9.998;2024-02-26T13:21:07;8.40;97.10
16635;DHT22;8431;52.458;9.998;2024-02-26T13:23:34;8.30;97.30
16635;DHT22;8431;52.458;9.998;2024-02-26T13:26:04;8.40;97.40
16635;DHT22;8431;52.458;9.998;2024-02-26T13:28:33;8.50;98.70
16635;DHT22;8431;52.458;9.998;2024-02-26T13:31:00;8.40;96.70
16635;DHT22;8431;52.458;9.998;2024-02-26T13:33:29;8.30;97.30
16635;DHT22;8431;52.458;9.998;2024-02-26T13:35:57;8.20;97.70
16635;DHT22;8431;52.458;9.998;2024-02-26T13:38:24;8.20;98.10
16635;DHT22;8431;52.458;9.998;2024-02-26T13:40:52;8.10;98.20
16635;DHT22;8431;52.458;9.998;2024-02-26T13:43:20;8.10;98.70
16635;DHT22;8431;52.458;9.998;2024-02-26T13:45:48;8.10;98.90
16635;DHT22;8431;52.458;9.998;2024-02-26T13:48:15;8.10;99.50
16635;DHT22;8431;52.458;9.998;2024-02-26T13:50:42;8.00;98.20
16635;DHT22;8431;52.458;9.998;2024-02-26T13:53:10;8.00;98.40
16635;DHT22;8431;52.458;9.998;2024-02-26T13:55:37;8.00;98.40
16635;DHT22;8431;52.458;9.998;2024-02-26T13:58:05;7.90;98.90
16635;DHT22;8431;52.458;9.998;2024-02-26T14:00:32;8.00;99.00
16635;DHT22;8431;52.458;9.998;2024-02-26T14:03:01;8.00;99.50
16635;DHT22;8431;52.458;9.998;2024-02-26T14:05:29;8.00;99.20
16635;DHT22;8431;52.458;9.998;2024-02-26T14:07:56;8.00;99.00
16635;DHT22;8431;52.458;9.998;2024-02-26T14:10:22;8.00;97.80
16635;DHT22;8431;52.458;9.998;2024-02-26T14:12:49;7.90;98.60
16635;DHT22;8431;52.458;9.998;2024-02-26T14:15:16;7.90;98.90
16635;DHT22;8431;52.458;9.998;2024-02-26T14:17:43;8.00;98.90
16635;DHT22;8431;52.458;9.998;2024-02-26T14:20:12;8.00;99.70
16635;DHT22;8431;52.458;9.998;2024-02-26T14:22:39;8.00;99.90
16635;DHT22;8431;52.458;9.998;2024-02-26T14:25:07;8.00;99.90
16635;DHT22;8431;52.458;9.998;2024-02-26T14:27:34;7.90;99.90
16635;DHT22;8431;52.458;9.998;2024-02-26T14:30:01;8.00;99.80
16635;DHT22;8431;52.458;9.998;2024-02-26T14:32:28;8.00;99.30
16635;DHT22;8431;52.458;9.998;2024-02-26T14:34:56;7.90;99.90
16635;DHT22;8431;52.458;9.998;2024-02-26T14:37:25;7.90;99.90
16635;DHT22;8431;52.458;9.998;2024-02-26T14:39:52;7.90;99.70
16635;DHT22;8431;52.458;9.998;2024-02-26T14:42:19;7.80;99.90
16635;DHT22;8431;52.458;9.998;2024-02-26T14:44:46;7.90;99.20
16635;DHT22;8431;52.458;9.998;2024-02-26T14:47:13;7.80;99.80
16635;DHT22;8431;52.458;9.998;2024-02-26T14:49:40;7.90;99.20
16635;DHT22;8431;52.458;9.998;2024-02-26T14:52:07;7.80;99.50
16635;DHT22;8431;52.458;9.998;2024-02-26T14:54:35;7.90;99.30
16635;DHT22;8431;52.458;9.998;2024-02-26T14:57:04;7.90;99.00
16635;DHT22;8431;52.458;9.998;2024-02-26T14:59:32;7.90;99.00
16635;DHT22;8431;52.458;9.998;2024-02-26T15:01:59;7.80;99.70
16635;DHT22;8431;52.458;9.998;2024-02-26T15:04:26;7.80;99.50
16635;DHT22;8431;52.458;9.998;2024-02-26T15:06:53;7.90;98.70
16635;DHT22;8431;52.458;9.998;2024-02-26T15:09:20;7.80;99.30
16635;DHT22;8431;52.458;9.998;2024-02-26T15:11:48;7.90;99.70
16635;DHT22;8431;52.458;9.998;2024-02-26T15:14:15;7.80;99.60
16635;DHT22;8431;52.458;9.998;2024-02-26T15:16:43;7.90;99.90
16635;DHT22;8431;52.458;9.998;2024-02-26T15:19:10;7.80;99.90
16635;DHT22;8431;52.458;9.998;2024-02-26T15:21:42;7.80;99.90
16635;DHT22;8431;52.458;9.998;2024-02-26T15:24:10;7.80;99.90
16635;DHT22;8431;52.458;9.998;2024-02-26T15:26:38;7.90;99.90
16635;DHT22;8431;52.458;9.998;2024-02-26T15:29:07;8.00;99.90
16635;DHT22;8431;52.458;9.998;2024-02-26T15:31:34;8.00;99.90
16635;DHT22;8431;52.458;9.998;2024-02-26T15:34:02;8.00;99.60
16635;DHT22;8431;52.458;9.998;2024-02-26T15:36:29;8.10;99.80
16635;DHT22;8431;52.458;9.998;2024-02-26T15:38:56;8.00;99.90
16635;DHT22;8431;52.458;9.998;2024-02-26T15:41:23;7.90;99.90
16635;DHT22;8431;52.458;9.998;2024-02-26T15:43:50;7.80;99.90
16635;DHT22;8431;52.458;9.998;2024-02-26T15:46:18;7.80;99.70
16635;DHT22;8431;52.458;9.998;2024-02-26T15:48:45;7.80;99.70
16635;DHT22;8431;52.458;9.998;2024-02-26T15:51:18;7.80;99.90
16635;DHT22;8431;52.458;9.998;2024-02-26T15:53:46;7.80;99.80
16635;DHT22;8431;52.458;9.998;2024-02-26T15:56:13;7.70;99.90
16635;DHT22;8431;52.458;9.998;2024-02-26T15:58:40;7.70;99.90
16635;DHT22;8431;52.458;9.998;2024-02-26T16:01:07;7.60;99.90
16635;DHT22;8431;52.458;9.998;2024-02-26T16:03:37;7.60;99.90
16635;DHT22;8431;52.458;9.998;2024-02-26T16:06:05;7.60;99.90